Time;durP1;ratioP1;P1;durP2;ratioP2;P2;SDS_P1;SDS_P2;PMS_P1;PMS_P2;Temp;Humidity;BMP_temperature;BMP_pressure;BME280_temperature;BME280_humidity;BME280_pressure;Samples;Min_cycle;Max_cycle;Signal;HPM_P1;HPM_P2
2020/12/14 00:01:20;;;;;;;9.93;3.88;;;;;;;;;;4926988;29;20099;-56
2020/12/14 00:03:46;;;;;;;7.97;2.85;;;;;;;;;;4927828;29;20040;-58
2020/12/14 00:06:12;;;;;;;6.38;2.33;;;;;;;;;;4924706;29;20044;-54
2020/12/14 00:08:40;;;;;;;8.85;2.70;;;;;;;;;;4926064;29;20039;-57
2020/12/14 00:11:06;;;;;;;7.85;4.00;;;;;;;;;;4929071;29;20112;-57
2020/12/14 00:13:32;;;;;;;6.50;2.78;;;;;;;;;;4926464;29;20043;-57
2020/12/14 00:15:57;;;;;;;10.15;3.75;;;;;;;;;;4928412;29;20623;-55
2020/12/14 00:18:23;;;;;;;8.43;3.40;;;;;;;;;;4927953;29;20103;-56
2020/12/14 00:20:49;;;;;;;10.30;3.83;;;;;;;;;;4927773;29;20100;-57
2020/12/14 00:23:15;;;;;;;6.45;3.13;;;;;;;;;;4927632;29;20063;-55
2020/12/14 00:25:41;;;;;;;6.97;3.17;;;;;;;;;;4927193;29;20047;-57
2020/12/14 00:28:07;;;;;;;8.30;3.58;;;;;;;;;;4928625;29;20084;-57
2020/12/14 00:30:32;;;;;;;16.27;6.68;;;;;;;;;;4930154;29;20050;-57
2020/12/14 00:32:58;;;;;;;11.05;3.63;;;;;;;;;;4927649;29;20139;-57
2020/12/14 00:35:24;;;;;;;15.93;4.18;;;;;;;;;;4926854;29;20121;-57
2020/12/14 00:37:50;;;;;;;10.40;4.45;;;;;;;;;;4927225;29;20052;-57
2020/12/14 00:40:16;;;;;;;12.13;3.47;;;;;;;;;;4926656;29;20046;-58
2020/12/14 00:42:45;;;;;;;10.55;4.38;;;;;;;;;;4925421;29;20067;-57
2020/12/14 00:45:11;;;;;;;8.88;2.85;;;;;;;;;;4928234;29;20074;-57
2020/12/14 00:47:37;;;;;;;9.15;2.85;;;;;;;;;;4926695;29;21484;-54
2020/12/14 00:50:04;;;;;;;7.70;3.67;;;;;;;;;;4927853;29;20052;-58
2020/12/14 00:52:29;;;;;;;7.15;3.40;;;;;;;;;;4928073;29;20059;-57
2020/12/14 00:54:55;;;;;;;8.88;3.33;;;;;;;;;;4923430;29;20090;-57
2020/12/14 00:57:21;;;;;;;10.88;3.60;;;;;;;;;;4926643;29;20048;-56
2020/12/14 00:59:47;;;;;;;11.38;4.35;;;;;;;;;;4928708;29;20474;-58
2020/12/14 01:02:13;;;;;;;4.20;1.85;;;;;;;;;;4925301;29;20044;-55
2020/12/14 01:04:39;;;;;;;12.45;3.97;;;;;;;;;;4917847;29;20062;-56
2020/12/14 01:07:04;;;;;;;10.80;4.25;;;;;;;;;;4912558;29;20036;-58
2020/12/14 01:09:30;;;;;;;5.05;2.58;;;;;;;;;;4918380;29;20296;-58
2020/12/14 01:11:56;;;;;;;7.88;3.03;;;;;;;;;;4924672;29;20063;-58
2020/12/14 01:14:22;;;;;;;10.57;3.08;;;;;;;;;;4917903;29;20127;-56
2020/12/14 01:16:48;;;;;;;7.50;3.45;;;;;;;;;;4924753;29;20595;-57
2020/12/14 01:19:14;;;;;;;8.43;3.33;;;;;;;;;;4928167;29;20033;-57
2020/12/14 01:21:40;;;;;;;12.55;4.40;;;;;;;;;;4925188;29;20040;-57
2020/12/14 01:24:05;;;;;;;15.25;3.92;;;;;;;;;;4926385;29;20044;-57
2020/12/14 01:26:33;;;;;;;12.85;3.42;;;;;;;;;;4925310;29;20181;-57
2020/12/14 01:28:59;;;;;;;11.15;4.80;;;;;;;;;;4923082;29;20051;-58
2020/12/14 01:31:27;;;;;;;11.60;4.10;;;;;;;;;;4926106;29;20103;-58
2020/12/14 01:33:53;;;;;;;10.75;4.55;;;;;;;;;;4925534;29;21049;-55
2020/12/14 01:36:19;;;;;;;14.60;5.07;;;;;;;;;;4927274;29;20051;-57
2020/12/14 01:38:45;;;;;;;12.68;4.30;;;;;;;;;;4926724;29;20043;-58
2020/12/14 01:41:11;;;;;;;13.10;4.68;;;;;;;;;;4927206;29;20059;-57
2020/12/14 01:43:36;;;;;;;15.23;5.70;;;;;;;;;;4923311;29;20186;-58
2020/12/14 01:46:02;;;;;;;15.40;5.47;;;;;;;;;;4925320;29;20039;-58
2020/12/14 01:48:28;;;;;;;12.05;5.25;;;;;;;;;;4926049;29;20044;-58
2020/12/14 01:50:54;;;;;;;10.60;4.80;;;;;;;;;;4927083;29;20059;-58
2020/12/14 01:53:21;;;;;;;9.45;4.35;;;;;;;;;;4924111;29;20087;-57
2020/12/14 01:55:47;;;;;;;9.27;4.30;;;;;;;;;;4922690;29;22129;-58
2020/12/14 01:58:13;;;;;;;13.70;4.30;;;;;;;;;;4925886;29;20040;-56
2020/12/14 02:00:39;;;;;;;7.97;3.90;;;;;;;;;;4931193;29;20054;-57
2020/12/14 02:03:05;;;;;;;9.02;2.47;;;;;;;;;;4930373;29;20051;-55
2020/12/14 02:05:31;;;;;;;8.60;4.13;;;;;;;;;;4927702;29;20055;-58
2020/12/14 02:07:56;;;;;;;9.88;4.63;;;;;;;;;;4929771;29;20110;-58
2020/12/14 02:10:23;;;;;;;13.65;4.68;;;;;;;;;;4932201;29;20051;-59
2020/12/14 02:12:49;;;;;;;13.75;5.40;;;;;;;;;;4913109;29;20055;-59
2020/12/14 02:15:15;;;;;;;13.35;4.50;;;;;;;;;;4914939;29;20071;-58
2020/12/14 02:17:40;;;;;;;11.88;4.72;;;;;;;;;;4929698;29;20047;-58
2020/12/14 02:20:07;;;;;;;10.73;5.00;;;;;;;;;;4930199;29;20048;-59
2020/12/14 02:22:33;;;;;;;11.80;4.50;;;;;;;;;;4928462;29;20060;-57
2020/12/14 02:25:00;;;;;;;10.48;5.18;;;;;;;;;;4929868;29;20027;-56
2020/12/14 02:27:27;;;;;;;9.63;4.00;;;;;;;;;;4931838;29;20705;-57
2020/12/14 02:29:53;;;;;;;14.27;5.25;;;;;;;;;;4935050;29;20051;-58
2020/12/14 02:32:20;;;;;;;12.07;5.05;;;;;;;;;;4932586;29;20158;-58
2020/12/14 02:34:46;;;;;;;9.95;5.25;;;;;;;;;;4938106;29;20048;-58
2020/12/14 02:37:13;;;;;;;10.95;3.65;;;;;;;;;;4935273;29;20039;-59
2020/12/14 02:39:39;;;;;;;16.20;5.10;;;;;;;;;;4934168;29;20090;-58
2020/12/14 02:42:06;;;;;;;16.60;5.57;;;;;;;;;;4936394;29;20386;-59
2020/12/14 02:44:32;;;;;;;11.88;4.50;;;;;;;;;;4937424;29;20040;-57
2020/12/14 02:46:58;;;;;;;17.40;6.50;;;;;;;;;;4937552;29;20040;-58
2020/12/14 02:49:24;;;;;;;12.68;5.30;;;;;;;;;;4932282;29;20075;-57
2020/12/14 02:51:49;;;;;;;17.15;5.68;;;;;;;;;;4929829;29;20114;-57
2020/12/14 02:54:15;;;;;;;8.43;4.50;;;;;;;;;;4928171;29;20060;-57
2020/12/14 02:56:43;;;;;;;14.02;5.05;;;;;;;;;;4927511;29;20059;-57
2020/12/14 02:59:10;;;;;;;16.08;5.45;;;;;;;;;;4928169;29;20099;-55
2020/12/14 03:01:36;;;;;;;12.15;5.20;;;;;;;;;;4928223;29;20050;-55
2020/12/14 03:04:02;;;;;;;18.60;6.55;;;;;;;;;;4923935;29;20182;-56
2020/12/14 03:06:28;;;;;;;13.25;5.60;;;;;;;;;;4893864;29;20103;-57
2020/12/14 03:08:54;;;;;;;13.50;5.07;;;;;;;;;;4926160;29;20039;-57
2020/12/14 03:11:19;;;;;;;13.30;4.57;;;;;;;;;;4927491;29;20126;-56
2020/12/14 03:13:45;;;;;;;11.57;4.32;;;;;;;;;;4926018;29;20047;-56
2020/12/14 03:16:11;;;;;;;19.58;5.93;;;;;;;;;;4925720;29;20056;-57
2020/12/14 03:18:37;;;;;;;12.73;5.45;;;;;;;;;;4925715;29;20114;-57
2020/12/14 03:21:06;;;;;;;13.00;5.75;;;;;;;;;;4924355;29;20043;-57
2020/12/14 03:23:32;;;;;;;12.90;5.38;;;;;;;;;;4906971;29;20047;-56
2020/12/14 03:25:58;;;;;;;11.40;4.70;;;;;;;;;;4927406;29;20054;-56
2020/12/14 03:28:25;;;;;;;10.38;5.03;;;;;;;;;;4926200;29;20099;-54
2020/12/14 03:30:51;;;;;;;13.48;4.93;;;;;;;;;;4909655;29;20077;-54
2020/12/14 03:33:18;;;;;;;9.10;4.22;;;;;;;;;;4903884;29;20130;-56
2020/12/14 03:35:45;;;;;;;12.98;4.65;;;;;;;;;;4924342;29;20112;-58
2020/12/14 03:38:11;;;;;;;11.57;5.32;;;;;;;;;;4925216;29;20075;-57
2020/12/14 03:40:37;;;;;;;11.27;4.40;;;;;;;;;;4909429;29;21707;-56
2020/12/14 03:43:03;;;;;;;15.73;6.25;;;;;;;;;;4923011;29;20107;-56
2020/12/14 03:45:29;;;;;;;11.35;5.13;;;;;;;;;;4925860;29;20071;-56
2020/12/14 03:47:56;;;;;;;13.43;4.45;;;;;;;;;;4924547;29;22105;-58
2020/12/14 03:50:22;;;;;;;12.98;5.13;;;;;;;;;;4924712;29;21287;-55
2020/12/14 03:52:48;;;;;;;10.40;4.43;;;;;;;;;;4923390;29;20066;-56
2020/12/14 03:55:14;;;;;;;9.85;4.47;;;;;;;;;;4925047;29;20076;-57
2020/12/14 03:57:40;;;;;;;10.13;3.70;;;;;;;;;;4923563;29;20047;-55
2020/12/14 04:00:05;;;;;;;12.23;4.43;;;;;;;;;;4923967;29;20040;-55
2020/12/14 04:02:31;;;;;;;13.73;4.55;;;;;;;;;;4921993;29;20047;-56
2020/12/14 04:04:57;;;;;;;13.63;4.20;;;;;;;;;;4924866;29;20107;-56
2020/12/14 04:07:23;;;;;;;12.38;5.18;;;;;;;;;;4923791;29;20051;-57
2020/12/14 04:09:49;;;;;;;14.20;4.95;;;;;;;;;;4927016;29;20051;-55
2020/12/14 04:12:15;;;;;;;9.02;3.85;;;;;;;;;;4925742;29;20056;-55
2020/12/14 04:14:41;;;;;;;13.20;4.72;;;;;;;;;;4923986;29;20476;-58
2020/12/14 04:17:06;;;;;;;15.70;4.95;;;;;;;;;;4924842;29;20135;-58
2020/12/14 04:19:32;;;;;;;10.77;3.88;;;;;;;;;;4925521;29;20054;-58
2020/12/14 04:22:07;;;;;;;14.57;5.18;;;;;;;;;;4925080;29;20067;-57
2020/12/14 04:24:33;;;;;;;16.48;5.35;;;;;;;;;;4924798;29;20754;-56
2020/12/14 04:26:59;;;;;;;13.50;4.82;;;;;;;;;;4925885;29;20056;-58
2020/12/14 04:29:25;;;;;;;10.00;4.32;;;;;;;;;;4924529;29;20059;-58
2020/12/14 04:31:51;;;;;;;7.93;3.20;;;;;;;;;;4908937;29;20819;-57
2020/12/14 04:34:18;;;;;;;6.97;3.30;;;;;;;;;;4923764;29;20099;-58
2020/12/14 04:36:47;;;;;;;11.63;3.83;;;;;;;;;;4924232;29;20040;-57
2020/12/14 04:39:13;;;;;;;10.68;5.45;;;;;;;;;;4923038;29;20085;-57
2020/12/14 04:41:39;;;;;;;14.40;5.07;;;;;;;;;;4924071;29;20552;-56
2020/12/14 04:44:05;;;;;;;11.30;4.78;;;;;;;;;;4923453;29;20055;-57
2020/12/14 04:46:33;;;;;;;9.35;3.58;;;;;;;;;;4923427;29;20076;-58
2020/12/14 04:48:59;;;;;;;16.90;5.45;;;;;;;;;;4926967;29;20047;-57
2020/12/14 04:51:25;;;;;;;11.57;4.20;;;;;;;;;;4926216;29;20051;-57
2020/12/14 04:53:52;;;;;;;13.93;5.18;;;;;;;;;;4927752;29;20033;-55
2020/12/14 04:56:20;;;;;;;20.25;3.58;;;;;;;;;;4927205;29;20079;-55
2020/12/14 04:58:46;;;;;;;16.50;5.95;;;;;;;;;;4929400;29;20060;-57
2020/12/14 05:01:12;;;;;;;12.88;4.80;;;;;;;;;;4930817;29;20048;-58
2020/12/14 05:03:38;;;;;;;21.67;6.20;;;;;;;;;;4928033;29;20039;-58
2020/12/14 05:06:04;;;;;;;11.73;4.85;;;;;;;;;;4927008;29;20139;-56
2020/12/14 05:08:30;;;;;;;15.25;5.93;;;;;;;;;;4927488;29;20087;-58
2020/12/14 05:10:56;;;;;;;16.75;4.97;;;;;;;;;;4926510;29;20048;-58
2020/12/14 05:13:28;;;;;;;13.13;6.00;;;;;;;;;;4925560;29;20080;-55
2020/12/14 05:15:54;;;;;;;13.07;5.53;;;;;;;;;;4928105;29;20048;-57
2020/12/14 05:18:23;;;;;;;8.73;4.22;;;;;;;;;;4927078;29;20902;-56
2020/12/14 05:21:02;;;;;;;13.93;4.47;;;;;;;;;;4927759;29;20115;-56
2020/12/14 05:23:32;;;;;;;18.10;6.82;;;;;;;;;;4927247;29;20066;-55
2020/12/14 05:26:13;;;;;;;11.88;4.03;;;;;;;;;;4927101;29;20039;-57
2020/12/14 05:28:39;;;;;;;15.43;5.68;;;;;;;;;;4925872;29;20048;-57
2020/12/14 05:31:05;;;;;;;13.48;5.78;;;;;;;;;;4928419;29;20090;-58
2020/12/14 05:33:32;;;;;;;12.85;5.82;;;;;;;;;;4925054;29;20060;-58
2020/12/14 05:35:58;;;;;;;20.77;5.50;;;;;;;;;;4927414;29;20050;-57
2020/12/14 05:38:27;;;;;;;16.05;5.80;;;;;;;;;;4926679;29;20036;-55
2020/12/14 05:40:55;;;;;;;14.07;5.82;;;;;;;;;;4926021;29;20050;-56
2020/12/14 05:43:23;;;;;;;20.85;5.75;;;;;;;;;;4923843;29;20071;-57
2020/12/14 05:45:53;;;;;;;15.65;4.85;;;;;;;;;;4926157;29;20048;-57
2020/12/14 05:48:25;;;;;;;11.00;4.05;;;;;;;;;;4925851;29;20050;-58
2020/12/14 05:50:52;;;;;;;14.25;4.82;;;;;;;;;;4925661;29;20047;-58
2020/12/14 05:53:22;;;;;;;18.67;4.38;;;;;;;;;;4925501;29;20493;-58
2020/12/14 05:55:48;;;;;;;12.02;5.55;;;;;;;;;;4925862;29;20135;-58
2020/12/14 05:58:15;;;;;;;15.85;6.68;;;;;;;;;;4925838;29;20095;-57
2020/12/14 06:00:51;;;;;;;15.63;5.13;;;;;;;;;;4925620;29;20121;-56
2020/12/14 06:03:17;;;;;;;18.50;6.50;;;;;;;;;;4914832;29;20137;-56
2020/12/14 06:05:46;;;;;;;12.27;4.70;;;;;;;;;;4926216;29;20067;-58
2020/12/14 06:08:30;;;;;;;23.17;6.25;;;;;;;;;;4926656;29;20130;-58
2020/12/14 06:10:58;;;;;;;18.42;6.63;;;;;;;;;;4925300;29;20048;-55
2020/12/14 06:13:29;;;;;;;12.85;5.47;;;;;;;;;;4924777;29;20750;-58
2020/12/14 06:16:00;;;;;;;11.80;4.93;;;;;;;;;;4926608;29;20054;-56
2020/12/14 06:18:28;;;;;;;13.07;5.60;;;;;;;;;;4923618;29;20040;-55
2020/12/14 06:20:54;;;;;;;10.57;4.75;;;;;;;;;;4925156;29;20085;-57
2020/12/14 06:23:20;;;;;;;12.40;4.88;;;;;;;;;;4906831;29;20436;-56
2020/12/14 06:25:46;;;;;;;13.73;4.78;;;;;;;;;;4925092;29;20043;-56
2020/12/14 06:28:40;;;;;;;10.63;4.10;;;;;;;;;;4926688;29;20314;-58
2020/12/14 06:31:06;;;;;;;15.35;5.22;;;;;;;;;;4909886;29;20075;-57
2020/12/14 06:33:40;;;;;;;11.88;4.50;;;;;;;;;;4924123;29;20056;-56
2020/12/14 06:36:19;;;;;;;18.88;5.97;;;;;;;;;;4925600;29;20311;-57
2020/12/14 06:38:45;;;;;;;11.45;5.30;;;;;;;;;;4909686;29;20099;-55
2020/12/14 06:41:13;;;;;;;9.00;3.60;;;;;;;;;;4924902;29;20040;-57
2020/12/14 06:43:39;;;;;;;11.35;5.07;;;;;;;;;;4922409;29;20070;-57
2020/12/14 06:46:05;;;;;;;14.82;4.03;;;;;;;;;;4923347;29;20051;-54
2020/12/14 06:48:41;;;;;;;12.93;4.43;;;;;;;;;;4926397;29;20465;-56
2020/12/14 06:51:11;;;;;;;15.05;4.82;;;;;;;;;;4924975;29;20067;-57
2020/12/14 06:53:37;;;;;;;6.38;2.28;;;;;;;;;;4927242;29;20084;-57
2020/12/14 06:56:03;;;;;;;15.90;4.88;;;;;;;;;;4922744;29;20035;-53
2020/12/14 06:58:30;;;;;;;15.90;5.07;;;;;;;;;;4924004;29;20094;-57
2020/12/14 07:00:56;;;;;;;18.42;5.55;;;;;;;;;;4924943;29;20094;-57
2020/12/14 07:03:34;;;;;;;16.23;5.32;;;;;;;;;;4922960;29;20043;-54
2020/12/14 07:06:01;;;;;;;17.60;5.78;;;;;;;;;;4924468;29;20074;-57
2020/12/14 07:08:28;;;;;;;12.25;4.20;;;;;;;;;;4924401;29;20051;-57
2020/12/14 07:11:12;;;;;;;11.75;4.57;;;;;;;;;;4924771;29;20036;-57
2020/12/14 07:13:38;;;;;;;11.52;4.70;;;;;;;;;;4923750;29;20044;-58
2020/12/14 07:16:08;;;;;;;18.95;4.40;;;;;;;;;;4925373;29;20074;-59
2020/12/14 07:18:34;;;;;;;15.20;5.28;;;;;;;;;;4912575;29;20123;-57
2020/12/14 07:21:07;;;;;;;15.27;4.28;;;;;;;;;;4925964;29;20047;-55
2020/12/14 07:23:36;;;;;;;12.60;4.28;;;;;;;;;;4922472;29;20074;-55
2020/12/14 07:26:03;;;;;;;13.88;4.85;;;;;;;;;;4927024;29;20039;-55
2020/12/14 07:28:36;;;;;;;12.65;5.68;;;;;;;;;;4927188;29;20044;-59
2020/12/14 07:31:06;;;;;;;10.23;4.22;;;;;;;;;;4927288;29;20483;-58
2020/12/14 07:33:32;;;;;;;15.13;5.38;;;;;;;;;;4924258;29;20063;-59
2020/12/14 07:36:02;;;;;;;16.23;5.22;;;;;;;;;;4926712;29;20044;-59
2020/12/14 07:38:28;;;;;;;8.38;3.90;;;;;;;;;;4923386;29;20091;-59
2020/12/14 07:41:05;;;;;;;12.25;5.90;;;;;;;;;;4924967;29;20358;-58
2020/12/14 07:43:40;;;;;;;13.07;3.90;;;;;;;;;;4923547;29;20108;-58
2020/12/14 07:46:15;;;;;;;13.45;4.10;;;;;;;;;;4927287;29;20039;-56
2020/12/14 07:48:41;;;;;;;11.85;3.55;;;;;;;;;;4927908;29;20043;-58
2020/12/14 07:51:07;;;;;;;10.40;4.82;;;;;;;;;;4926191;29;20648;-59
2020/12/14 07:53:32;;;;;;;17.25;5.50;;;;;;;;;;4923509;29;20049;-58
2020/12/14 07:56:02;;;;;;;14.98;5.40;;;;;;;;;;4926148;29;20155;-58
2020/12/14 07:58:28;;;;;;;12.15;5.40;;;;;;;;;;4916793;29;20035;-58
2020/12/14 08:00:54;;;;;;;8.93;3.53;;;;;;;;;;4926845;29;20401;-58
2020/12/14 08:03:20;;;;;;;11.68;4.25;;;;;;;;;;4924765;29;20051;-56
2020/12/14 08:05:45;;;;;;;14.07;5.00;;;;;;;;;;4928751;29;20052;-58
2020/12/14 08:08:12;;;;;;;13.15;5.35;;;;;;;;;;4926298;29;22135;-58
2020/12/14 08:10:38;;;;;;;11.57;4.18;;;;;;;;;;4925360;29;20047;-57
2020/12/14 08:13:13;;;;;;;14.73;5.43;;;;;;;;;;4925323;29;20063;-54
2020/12/14 08:15:39;;;;;;;17.85;5.50;;;;;;;;;;4925557;29;20083;-55
2020/12/14 08:18:06;;;;;;;7.25;3.42;;;;;;;;;;4926050;29;20036;-58
2020/12/14 08:20:36;;;;;;;9.05;4.13;;;;;;;;;;4926165;29;20103;-57
2020/12/14 08:23:03;;;;;;;9.77;4.32;;;;;;;;;;4930659;29;20091;-54
2020/12/14 08:25:31;;;;;;;16.75;4.82;;;;;;;;;;4929710;29;20420;-55
2020/12/14 08:28:01;;;;;;;15.75;4.95;;;;;;;;;;4930018;29;20151;-58
2020/12/14 08:30:27;;;;;;;10.23;4.45;;;;;;;;;;4929596;29;20060;-57
2020/12/14 08:33:12;;;;;;;16.02;6.18;;;;;;;;;;4929992;29;20055;-55
2020/12/14 08:35:45;;;;;;;15.13;5.90;;;;;;;;;;4931237;29;20113;-56
2020/12/14 08:38:14;;;;;;;16.85;5.25;;;;;;;;;;4932759;29;21025;-57
2020/12/14 08:40:49;;;;;;;16.02;5.50;;;;;;;;;;4929401;29;20071;-57
2020/12/14 08:43:16;;;;;;;14.75;5.57;;;;;;;;;;4930571;29;20052;-57
2020/12/14 08:46:02;;;;;;;17.42;6.25;;;;;;;;;;4929013;29;20055;-56
2020/12/14 08:48:28;;;;;;;13.18;5.25;;;;;;;;;;4928742;29;20039;-57
2020/12/14 08:51:04;;;;;;;18.17;5.72;;;;;;;;;;4929140;29;20035;-58
2020/12/14 08:53:30;;;;;;;13.10;6.28;;;;;;;;;;4925299;29;20087;-58
2020/12/14 08:56:01;;;;;;;11.68;4.20;;;;;;;;;;4928357;29;20051;-58
2020/12/14 08:58:26;;;;;;;15.82;5.32;;;;;;;;;;4927297;29;20133;-54
2020/12/14 09:00:52;;;;;;;19.35;6.45;;;;;;;;;;4928455;29;20059;-57
2020/12/14 09:03:18;;;;;;;21.65;6.07;;;;;;;;;;4928010;29;20102;-58
2020/12/14 09:05:44;;;;;;;15.52;5.28;;;;;;;;;;4927556;29;20068;-58
2020/12/14 09:08:19;;;;;;;12.00;5.03;;;;;;;;;;4926999;29;20058;-58
2020/12/14 09:10:57;;;;;;;20.23;5.43;;;;;;;;;;4927327;29;20048;-57
2020/12/14 09:13:23;;;;;;;22.15;5.50;;;;;;;;;;4927135;29;20082;-58
2020/12/14 09:15:53;;;;;;;13.13;4.90;;;;;;;;;;4927299;29;20525;-54
2020/12/14 09:18:20;;;;;;;14.90;5.80;;;;;;;;;;4928698;29;20044;-57
2020/12/14 09:20:46;;;;;;;11.52;4.50;;;;;;;;;;4927844;29;20070;-57
2020/12/14 09:23:22;;;;;;;15.07;5.18;;;;;;;;;;4927078;29;20075;-56
2020/12/14 09:25:48;;;;;;;12.10;5.25;;;;;;;;;;4927206;29;20041;-59
2020/12/14 09:28:14;;;;;;;14.00;5.35;;;;;;;;;;4927590;29;20044;-58
2020/12/14 09:30:40;;;;;;;10.00;4.30;;;;;;;;;;4928141;29;20087;-57
2020/12/14 09:33:06;;;;;;;13.60;5.43;;;;;;;;;;4927960;29;20048;-57
2020/12/14 09:35:31;;;;;;;10.73;3.85;;;;;;;;;;4929326;29;20040;-56
2020/12/14 09:37:57;;;;;;;14.48;5.57;;;;;;;;;;4929466;29;20115;-58
2020/12/14 09:40:23;;;;;;;17.08;5.60;;;;;;;;;;4927510;29;20043;-58
2020/12/14 09:42:49;;;;;;;9.55;4.07;;;;;;;;;;4927979;29;20055;-57
2020/12/14 09:45:15;;;;;;;14.13;5.60;;;;;;;;;;4928229;29;20032;-58
2020/12/14 09:47:44;;;;;;;14.02;5.82;;;;;;;;;;4926980;29;20123;-57
2020/12/14 09:50:10;;;;;;;14.20;5.03;;;;;;;;;;4928142;29;20046;-59
2020/12/14 09:52:36;;;;;;;14.23;5.57;;;;;;;;;;4926942;29;20076;-57
2020/12/14 09:55:02;;;;;;;14.27;5.18;;;;;;;;;;4927484;29;20035;-58
2020/12/14 09:57:28;;;;;;;13.23;5.30;;;;;;;;;;4928667;29;20047;-58
2020/12/14 09:59:54;;;;;;;15.10;4.85;;;;;;;;;;4928327;29;20054;-57
2020/12/14 10:02:20;;;;;;;18.23;5.45;;;;;;;;;;4925793;29;20044;-58
2020/12/14 10:04:46;;;;;;;17.70;5.30;;;;;;;;;;4927349;29;20087;-58
2020/12/14 10:07:12;;;;;;;11.32;4.40;;;;;;;;;;4927727;29;20051;-56
2020/12/14 10:09:38;;;;;;;18.08;4.70;;;;;;;;;;4926687;29;20044;-58
2020/12/14 10:12:04;;;;;;;15.45;5.30;;;;;;;;;;4926161;29;20058;-58
2020/12/14 10:14:30;;;;;;;14.48;4.13;;;;;;;;;;4925895;29;20054;-57
2020/12/14 10:16:56;;;;;;;13.98;4.60;;;;;;;;;;4926900;29;20712;-57
2020/12/14 10:19:21;;;;;;;12.68;5.25;;;;;;;;;;4926136;29;20098;-58
2020/12/14 10:21:47;;;;;;;14.70;5.72;;;;;;;;;;4927714;29;20048;-57
2020/12/14 10:24:13;;;;;;;11.52;4.85;;;;;;;;;;4926326;29;20071;-57
2020/12/14 10:26:39;;;;;;;13.77;4.60;;;;;;;;;;4916141;29;20048;-58
2020/12/14 10:29:05;;;;;;;12.65;4.78;;;;;;;;;;4924087;29;20148;-58
2020/12/14 10:31:31;;;;;;;14.30;4.95;;;;;;;;;;4926359;29;20059;-56
2020/12/14 10:33:59;;;;;;;16.80;6.65;;;;;;;;;;4925703;29;20042;-56
2020/12/14 10:36:25;;;;;;;10.07;3.95;;;;;;;;;;4925117;29;20512;-57
2020/12/14 10:38:53;;;;;;;18.67;5.90;;;;;;;;;;4926478;29;20067;-56
2020/12/14 10:41:19;;;;;;;16.63;5.53;;;;;;;;;;4924585;29;20040;-57
2020/12/14 10:43:45;;;;;;;15.10;5.78;;;;;;;;;;4925815;29;20040;-58
2020/12/14 10:46:11;;;;;;;13.75;4.45;;;;;;;;;;4926746;29;20058;-58
2020/12/14 10:48:37;;;;;;;11.82;4.82;;;;;;;;;;4926101;29;20102;-56
2020/12/14 10:51:03;;;;;;;19.23;5.47;;;;;;;;;;4925800;29;20060;-58
2020/12/14 10:53:29;;;;;;;19.95;6.55;;;;;;;;;;4923867;29;20492;-59
2020/12/14 10:55:55;;;;;;;13.05;5.55;;;;;;;;;;4926329;29;20047;-58
2020/12/14 10:58:21;;;;;;;16.88;5.85;;;;;;;;;;4926318;29;20052;-56
2020/12/14 11:00:46;;;;;;;18.90;5.35;;;;;;;;;;4910562;29;20068;-57
2020/12/14 11:03:12;;;;;;;14.00;5.00;;;;;;;;;;4924764;29;20130;-57
2020/12/14 11:05:38;;;;;;;15.82;6.82;;;;;;;;;;4924914;29;20098;-57
2020/12/14 11:08:04;;;;;;;18.05;6.15;;;;;;;;;;4926094;29;20067;-58
2020/12/14 11:10:30;;;;;;;10.50;4.45;;;;;;;;;;4924168;29;20051;-58
2020/12/14 11:12:56;;;;;;;18.27;5.85;;;;;;;;;;4925727;29;20080;-57
2020/12/14 11:15:22;;;;;;;19.90;6.97;;;;;;;;;;4925417;29;20091;-58
2020/12/14 11:17:47;;;;;;;19.10;7.00;;;;;;;;;;4925095;29;20052;-57
2020/12/14 11:20:15;;;;;;;14.15;5.53;;;;;;;;;;4926528;29;20072;-57
2020/12/14 11:22:41;;;;;;;14.95;5.50;;;;;;;;;;4923788;29;20055;-57
2020/12/14 11:25:07;;;;;;;16.90;6.53;;;;;;;;;;4926614;29;20059;-58
2020/12/14 11:27:33;;;;;;;20.42;7.03;;;;;;;;;;4924556;29;20517;-57
2020/12/14 11:29:59;;;;;;;19.67;7.63;;;;;;;;;;4925782;29;20103;-58
2020/12/14 11:32:26;;;;;;;11.00;4.65;;;;;;;;;;4925793;29;20059;-57
2020/12/14 11:34:52;;;;;;;18.98;6.88;;;;;;;;;;4924895;29;20544;-57
2020/12/14 11:37:18;;;;;;;12.15;5.57;;;;;;;;;;4923078;29;20070;-57
2020/12/14 11:39:44;;;;;;;15.43;6.22;;;;;;;;;;4914337;29;20044;-58
2020/12/14 11:42:10;;;;;;;13.23;5.65;;;;;;;;;;4926031;29;20035;-58
2020/12/14 11:44:36;;;;;;;23.98;7.55;;;;;;;;;;4924173;29;20141;-56
2020/12/14 11:47:02;;;;;;;15.45;5.22;;;;;;;;;;4924198;29;20059;-58
2020/12/14 11:49:28;;;;;;;17.30;5.43;;;;;;;;;;4911258;29;20039;-57
2020/12/14 11:51:54;;;;;;;19.02;6.18;;;;;;;;;;4923336;29;20642;-58
2020/12/14 11:54:20;;;;;;;16.42;6.85;;;;;;;;;;4923590;29;20054;-55
2020/12/14 11:56:47;;;;;;;16.10;5.47;;;;;;;;;;4925419;29;20440;-58
2020/12/14 11:59:13;;;;;;;13.48;5.43;;;;;;;;;;4927123;29;20070;-57
2020/12/14 12:01:38;;;;;;;25.80;7.00;;;;;;;;;;4909694;29;20071;-58
2020/12/14 12:04:04;;;;;;;16.77;6.45;;;;;;;;;;4926316;29;20649;-58
2020/12/14 12:06:30;;;;;;;22.23;6.18;;;;;;;;;;4924300;29;20119;-56
2020/12/14 12:08:57;;;;;;;19.13;6.63;;;;;;;;;;4925896;29;20052;-56
2020/12/14 12:11:23;;;;;;;20.10;6.93;;;;;;;;;;4909890;29;20040;-58
2020/12/14 12:13:50;;;;;;;20.15;6.95;;;;;;;;;;4925769;29;20082;-57
2020/12/14 12:16:16;;;;;;;20.80;7.55;;;;;;;;;;4926067;29;20051;-55
2020/12/14 12:18:43;;;;;;;18.48;5.95;;;;;;;;;;4923850;29;20111;-58
2020/12/14 12:21:09;;;;;;;18.95;5.53;;;;;;;;;;4924647;29;20044;-56
2020/12/14 12:23:35;;;;;;;20.10;7.32;;;;;;;;;;4922721;29;20047;-57
2020/12/14 12:26:02;;;;;;;21.02;7.13;;;;;;;;;;4923608;29;20036;-57
2020/12/14 12:28:27;;;;;;;25.92;7.30;;;;;;;;;;4924367;29;20132;-56
2020/12/14 12:30:54;;;;;;;22.50;7.88;;;;;;;;;;4925470;29;20044;-59
2020/12/14 12:33:21;;;;;;;13.63;5.63;;;;;;;;;;4924257;29;20131;-58
2020/12/14 12:35:47;;;;;;;19.20;7.32;;;;;;;;;;4925232;29;20080;-57
2020/12/14 12:38:13;;;;;;;18.67;7.85;;;;;;;;;;4925961;29;20044;-58
2020/12/14 12:40:39;;;;;;;24.58;7.45;;;;;;;;;;4927008;29;20042;-58
2020/12/14 12:43:05;;;;;;;21.45;8.10;;;;;;;;;;4924712;29;20048;-58
2020/12/14 12:45:31;;;;;;;21.92;6.90;;;;;;;;;;4925213;29;20162;-56
2020/12/14 12:47:57;;;;;;;29.65;8.50;;;;;;;;;;4923128;29;20123;-58
2020/12/14 12:50:23;;;;;;;27.52;9.95;;;;;;;;;;4925246;29;20055;-57
2020/12/14 12:52:48;;;;;;;19.40;7.90;;;;;;;;;;4912234;29;20060;-57
2020/12/14 12:55:14;;;;;;;28.25;9.57;;;;;;;;;;4925333;29;20056;-55
2020/12/14 12:57:40;;;;;;;18.50;7.65;;;;;;;;;;4926746;29;20079;-61
2020/12/14 13:00:07;;;;;;;19.88;7.88;;;;;;;;;;4909471;29;20079;-57
2020/12/14 13:02:32;;;;;;;16.17;6.85;;;;;;;;;;4921056;29;20048;-57
2020/12/14 13:04:59;;;;;;;14.32;6.15;;;;;;;;;;4925378;29;20050;-57
2020/12/14 13:07:25;;;;;;;17.15;7.68;;;;;;;;;;4925218;29;20047;-57
2020/12/14 13:09:51;;;;;;;15.45;6.85;;;;;;;;;;4927404;29;20159;-58
2020/12/14 13:12:20;;;;;;;16.23;6.85;;;;;;;;;;4926958;29;20829;-58
2020/12/14 13:14:46;;;;;;;19.00;6.13;;;;;;;;;;4926663;29;20040;-58
2020/12/14 13:17:13;;;;;;;16.42;6.78;;;;;;;;;;4926654;29;20050;-58
2020/12/14 13:19:39;;;;;;;14.27;6.00;;;;;;;;;;4926316;29;20043;-57
2020/12/14 13:22:05;;;;;;;15.18;6.95;;;;;;;;;;4927674;29;20138;-58
2020/12/14 13:24:31;;;;;;;13.65;5.30;;;;;;;;;;4925839;29;20040;-58
2020/12/14 13:26:57;;;;;;;28.25;7.53;;;;;;;;;;4912266;29;20066;-58
2020/12/14 13:29:23;;;;;;;17.45;6.95;;;;;;;;;;4926425;29;20458;-58
2020/12/14 13:31:48;;;;;;;21.08;6.43;;;;;;;;;;4926845;29;20039;-57
2020/12/14 13:34:16;;;;;;;23.35;8.45;;;;;;;;;;4927961;29;20042;-59
2020/12/14 13:36:42;;;;;;;19.65;8.23;;;;;;;;;;4927472;29;20044;-57
2020/12/14 13:39:08;;;;;;;23.05;7.97;;;;;;;;;;4928732;29;20107;-56
2020/12/14 13:41:34;;;;;;;17.27;6.25;;;;;;;;;;4927143;29;20070;-58
2020/12/14 13:44:00;;;;;;;19.30;7.25;;;;;;;;;;4925943;29;20048;-57
2020/12/14 13:46:26;;;;;;;20.25;7.68;;;;;;;;;;4927772;29;20431;-57
2020/12/14 13:48:52;;;;;;;25.52;7.40;;;;;;;;;;4927582;29;20064;-58
2020/12/14 13:51:19;;;;;;;21.63;8.00;;;;;;;;;;4926943;29;20048;-58
2020/12/14 13:53:45;;;;;;;21.52;6.95;;;;;;;;;;4908536;29;20087;-57
2020/12/14 13:56:11;;;;;;;14.55;6.65;;;;;;;;;;4928485;29;20055;-57
2020/12/14 13:58:37;;;;;;;20.90;7.03;;;;;;;;;;4927799;29;22917;-58
2020/12/14 14:01:03;;;;;;;17.23;7.93;;;;;;;;;;4911288;29;20048;-57
2020/12/14 14:03:29;;;;;;;13.75;7.18;;;;;;;;;;4928643;29;20072;-58
2020/12/14 14:05:55;;;;;;;16.05;8.10;;;;;;;;;;4927031;29;20062;-57
2020/12/14 14:08:21;;;;;;;16.35;7.63;;;;;;;;;;4928273;29;20110;-57
2020/12/14 14:10:47;;;;;;;23.48;8.50;;;;;;;;;;4927923;29;20040;-57
2020/12/14 14:13:13;;;;;;;19.98;8.18;;;;;;;;;;4926069;29;20063;-54
2020/12/14 14:15:39;;;;;;;20.55;8.75;;;;;;;;;;4927650;29;20086;-57
2020/12/14 14:18:05;;;;;;;22.48;7.80;;;;;;;;;;4928131;29;20873;-56
2020/12/14 14:20:31;;;;;;;15.73;7.25;;;;;;;;;;4927346;29;20040;-57
2020/12/14 14:22:57;;;;;;;24.88;8.20;;;;;;;;;;4925098;29;20055;-54
2020/12/14 14:25:24;;;;;;;25.92;8.73;;;;;;;;;;4906936;29;20078;-57
2020/12/14 14:27:50;;;;;;;16.05;7.70;;;;;;;;;;4926858;29;20155;-54
2020/12/14 14:30:16;;;;;;;20.42;8.55;;;;;;;;;;4913490;29;20043;-55